createdAt,value
2022-12-18T17:27:29.311Z,15.90
2022-12-18T17:28:02.616Z,14.40
2022-12-18T17:28:36.356Z,13.93
2022-12-18T17:29:09.902Z,13.23
2022-12-18T17:29:46.814Z,13.73
2022-12-18T17:30:21.488Z,13.60
2022-12-18T17:30:56.559Z,12.87
2022-12-18T17:31:31.233Z,13.60
2022-12-18T17:32:04.899Z,13.87
2022-12-18T17:32:38.206Z,12.70
2022-12-18T17:33:11.521Z,12.87
2022-12-18T17:33:44.937Z,13.97
2022-12-18T17:34:18.242Z,13.30
2022-12-18T17:34:51.537Z,13.77
2022-12-18T17:35:24.863Z,13.37
2022-12-18T17:36:00.749Z,13.50
2022-12-18T17:36:34.254Z,12.83
2022-12-18T17:37:07.555Z,13.30
2022-12-18T17:37:43.678Z,13.47
2022-12-18T17:38:18.043Z,13.43
2022-12-18T17:38:55.542Z,13.07
2022-12-18T17:39:29.323Z,13.97
2022-12-18T17:40:02.879Z,13.17
2022-12-18T17:40:36.653Z,13.37
2022-12-18T17:41:12.251Z,13.97
2022-12-18T17:41:45.636Z,14.00
2022-12-18T17:42:18.954Z,12.90
2022-12-18T17:42:54.401Z,13.33
2022-12-18T17:43:27.697Z,13.30
2022-12-18T17:44:03.347Z,12.93
2022-12-18T17:44:36.763Z,12.73
2022-12-18T17:45:10.513Z,13.47
2022-12-18T17:45:44.258Z,13.27
2022-12-18T17:46:17.624Z,13.03
2022-12-18T17:46:51.105Z,12.97
2022-12-18T17:47:24.504Z,13.07
2022-12-18T17:47:59.987Z,13.03
2022-12-18T17:48:34.320Z,12.87
2022-12-18T17:49:07.631Z,13.00
2022-12-18T17:49:41.134Z,12.87
2022-12-18T17:50:14.493Z,13.03
2022-12-18T17:50:47.855Z,12.97
2022-12-18T17:51:21.194Z,13.07
2022-12-18T17:51:54.526Z,12.53
2022-12-18T17:52:27.836Z,12.93
2022-12-18T17:53:01.602Z,12.80
2022-12-18T17:53:35.147Z,12.90
2022-12-18T17:54:08.443Z,13.37
2022-12-18T17:54:42.560Z,13.17
2022-12-18T17:55:15.911Z,12.20
2022-12-18T17:55:56.292Z,12.63
2022-12-18T17:56:29.984Z,11.93
2022-12-18T17:57:04.123Z,12.30
2022-12-18T17:57:37.643Z,12.27
2022-12-18T17:58:11.017Z,12.80
2022-12-18T17:58:45.037Z,13.37
2022-12-18T18:00:19.193Z,13.33
2022-12-18T18:00:53.018Z,13.47
2022-12-18T18:01:27.600Z,14.17
2022-12-18T18:02:01.162Z,13.77
2022-12-18T18:02:34.810Z,13.77
2022-12-18T18:03:09.592Z,13.53
2022-12-18T18:03:44.154Z,13.33
2022-12-18T18:04:18.101Z,14.10
2022-12-18T18:04:51.483Z,13.63
2022-12-18T18:05:24.789Z,14.07
2022-12-18T18:06:00.022Z,13.53
2022-12-18T18:06:33.971Z,13.93
2022-12-18T18:07:10.077Z,12.93
2022-12-18T18:07:43.418Z,13.23
2022-12-18T18:08:16.749Z,13.50
2022-12-18T18:08:50.117Z,13.67
2022-12-18T18:09:23.489Z,13.63
2022-12-18T18:09:56.818Z,13.37
2022-12-18T18:10:30.116Z,12.77
2022-12-18T18:11:28.777Z,12.57
2022-12-18T18:12:20.353Z,13.67
2022-12-18T18:13:11.922Z,12.80
2022-12-18T18:14:01.247Z,12.50
2022-12-18T18:14:34.856Z,13.10
2022-12-18T18:15:08.710Z,13.00
2022-12-18T18:15:42.723Z,13.33
2022-12-18T18:16:16.087Z,13.53
2022-12-18T18:16:52.531Z,13.33
2022-12-18T18:17:25.871Z,13.93
2022-12-18T18:17:59.187Z,13.40
2022-12-18T18:19:34.723Z,13.80
2022-12-18T18:20:07.651Z,14.40
2022-12-18T18:20:41.206Z,13.77
2022-12-18T18:21:14.138Z,13.30
2022-12-18T18:21:49.815Z,13.07
2022-12-18T18:22:23.503Z,13.47
2022-12-18T18:22:57.332Z,13.70
2022-12-18T18:24:47.197Z,13.27
2022-12-18T18:26:11.643Z,12.53
2022-12-18T18:26:44.465Z,13.00
2022-12-18T18:27:17.343Z,12.87
2022-12-18T18:27:50.169Z,12.47
2022-12-18T18:28:23.017Z,12.83
2022-12-18T18:28:55.789Z,12.80
2022-12-18T18:29:32.599Z,12.50
2022-12-18T18:30:53.302Z,12.90
2022-12-18T18:31:28.518Z,13.07
2022-12-18T18:32:02.396Z,12.33
2022-12-18T18:32:40.135Z,12.30
2022-12-18T18:33:14.934Z,12.40
2022-12-18T18:33:51.441Z,12.70
2022-12-18T18:34:27.460Z,12.87
2022-12-18T18:35:01.022Z,12.17
2022-12-18T18:47:00.354Z,13.93
2022-12-18T18:47:35.281Z,14.50
2022-12-18T18:48:08.855Z,13.60
2022-12-18T18:48:43.749Z,13.10
2022-12-18T18:49:17.568Z,12.93
2022-12-18T18:49:51.107Z,12.53
2022-12-18T18:50:24.647Z,12.87
2022-12-18T18:51:21.804Z,13.37
2022-12-18T18:53:19.905Z,13.07
2022-12-18T18:53:54.333Z,12.27
2022-12-18T18:54:28.212Z,12.60
2022-12-18T18:55:13.271Z,12.33
2022-12-18T18:55:55.152Z,11.27
2022-12-18T18:57:30.966Z,12.47
2022-12-18T18:59:02.290Z,11.23
2022-12-18T18:59:35.597Z,11.67
2022-12-18T19:00:10.344Z,12.53
2022-12-18T19:00:44.065Z,12.07
2022-12-18T19:01:19.949Z,11.87
2022-12-18T19:01:53.434Z,12.13
2022-12-18T19:02:26.972Z,11.37
2022-12-18T19:03:00.775Z,11.73
2022-12-18T19:03:35.160Z,12.10
2022-12-18T19:04:08.480Z,11.83
2022-12-18T19:04:45.731Z,12.13
2022-12-18T19:05:20.138Z,11.47
2022-12-18T19:05:56.382Z,11.80
2022-12-18T19:06:30.029Z,11.97
2022-12-18T19:07:04.621Z,11.37
2022-12-18T19:07:37.947Z,12.43
2022-12-18T19:08:11.259Z,12.60
2022-12-18T19:08:46.896Z,12.53
2022-12-18T19:09:20.193Z,11.63
2022-12-18T19:09:54.629Z,12.33
2022-12-18T19:10:27.941Z,11.03
2022-12-18T19:11:02.950Z,11.07
2022-12-18T19:13:29.926Z,11.40
2022-12-18T19:14:06.902Z,10.90
2022-12-18T19:14:40.261Z,11.33
2022-12-18T19:15:14.138Z,11.23
2022-12-18T19:15:47.850Z,11.17
2022-12-18T19:16:21.321Z,11.60
2022-12-18T19:16:56.926Z,11.73
2022-12-18T19:17:31.627Z,11.63
2022-12-18T19:18:05.360Z,11.17
2022-12-18T19:18:39.105Z,11.20
2022-12-18T19:19:13.548Z,10.80
2022-12-18T19:19:47.038Z,11.00
2022-12-18T19:20:20.368Z,11.23
2022-12-18T19:21:01.393Z,11.50
2022-12-18T19:21:35.774Z,11.90
2022-12-18T19:22:10.071Z,11.30
2022-12-18T19:22:43.384Z,11.60
2022-12-18T19:23:19.362Z,11.23
2022-12-18T19:23:52.676Z,11.07
2022-12-18T19:25:21.759Z,12.20
2022-12-18T19:26:10.268Z,11.17
2022-12-18T19:26:48.822Z,10.93
2022-12-18T19:27:22.314Z,10.57
2022-12-18T19:27:55.827Z,10.80
2022-12-18T19:28:29.741Z,11.27
2022-12-18T19:29:08.128Z,11.13
2022-12-18T19:29:41.907Z,12.20
2022-12-18T19:31:37.447Z,10.85
2022-12-18T19:32:17.766Z,11.70
2022-12-18T19:33:05.517Z,11.95
2022-12-18T19:34:59.618Z,14.65
2022-12-18T19:36:20.177Z,12.70
2022-12-18T19:40:16.700Z,14.60
2022-12-18T19:40:56.714Z,11.65
2022-12-18T19:41:36.591Z,11.15
2022-12-18T19:43:09.527Z,9.83
2022-12-18T19:43:43.635Z,11.30
2022-12-18T19:44:19.335Z,11.37
2022-12-18T19:44:53.396Z,11.23
2022-12-18T19:45:27.497Z,11.27
2022-12-18T19:46:01.577Z,10.60
2022-12-18T19:46:36.341Z,10.67
2022-12-18T19:47:16.002Z,11.13
2022-12-18T19:47:50.066Z,11.20
2022-12-18T19:48:24.102Z,11.37
2022-12-18T19:49:00.004Z,10.83
2022-12-18T19:49:34.962Z,11.23
2022-12-18T19:50:09.984Z,11.03
2022-12-18T19:50:44.090Z,10.90
2022-12-18T19:51:23.759Z,11.37
2022-12-18T19:51:57.837Z,10.93
2022-12-18T19:58:57.375Z,44.97
2022-12-18T19:59:32.139Z,44.13
2022-12-18T20:00:07.432Z,44.00
2022-12-18T20:00:42.313Z,44.90
2022-12-18T20:01:17.942Z,42.97
2022-12-18T20:01:54.831Z,41.90
2022-12-18T20:02:31.766Z,43.00
2022-12-18T20:03:17.642Z,44.77
2022-12-18T20:03:58.955Z,43.93
2022-12-18T20:04:34.717Z,44.37
2022-12-18T20:05:11.775Z,43.83
2022-12-18T20:05:46.631Z,44.10
2022-12-18T20:06:31.772Z,44.73
2022-12-18T20:07:06.638Z,46.60
2022-12-18T20:07:41.778Z,46.53
2022-12-18T20:08:18.114Z,46.63
2022-12-18T20:08:54.001Z,45.77
2022-12-18T20:09:33.089Z,46.83
2022-12-18T20:10:12.291Z,47.63
2022-12-18T20:10:49.934Z,48.47
2022-12-18T20:11:24.887Z,48.50
2022-12-18T20:11:59.760Z,47.77
2022-12-18T20:12:34.834Z,49.43
2022-12-18T20:13:09.688Z,50.00
2022-12-18T20:13:45.008Z,49.63
2022-12-18T20:14:22.943Z,49.00
2022-12-18T20:16:20.115Z,44.73
2022-12-18T20:16:55.115Z,46.87
2022-12-18T20:17:30.469Z,47.90
2022-12-18T20:19:27.252Z,47.17
2022-12-18T20:20:02.027Z,49.10
2022-12-18T20:20:36.987Z,48.63
2022-12-18T20:21:14.057Z,48.93
2022-12-18T20:21:49.261Z,50.00
2022-12-18T20:22:24.133Z,50.77
2022-12-18T20:22:59.070Z,50.50
2022-12-18T20:23:33.955Z,51.33
2022-12-18T20:24:12.053Z,52.17
2022-12-18T20:24:47.009Z,52.00
2022-12-18T20:25:24.411Z,52.53
2022-12-18T20:25:59.299Z,51.30
2022-12-18T20:26:34.204Z,52.90
2022-12-18T20:27:14.046Z,53.23
2022-12-18T20:27:50.429Z,52.77
2022-12-18T20:28:25.728Z,51.87
2022-12-18T20:29:00.771Z,53.07
2022-12-18T20:29:35.637Z,52.13
2022-12-18T20:30:11.269Z,53.50
2022-12-18T20:30:46.157Z,53.93
2022-12-18T20:31:21.130Z,52.87
2022-12-18T20:31:56.060Z,53.27
2022-12-18T20:32:36.814Z,52.80
2022-12-18T20:33:12.046Z,53.60
2022-12-18T20:33:48.713Z,55.03
2022-12-18T20:34:26.020Z,52.00
2022-12-18T20:35:00.994Z,53.10
2022-12-18T20:35:38.954Z,52.67
2022-12-18T20:36:15.488Z,53.47
2022-12-18T20:36:51.269Z,52.33
2022-12-18T20:37:26.190Z,50.87
2022-12-18T20:38:02.160Z,51.57
2022-12-18T20:38:39.597Z,52.37
2022-12-18T20:39:16.830Z,54.03
2022-12-18T20:39:53.719Z,51.97
2022-12-18T20:40:29.024Z,52.20
2022-12-18T20:42:25.605Z,51.23
2022-12-18T20:43:00.622Z,54.53
2022-12-18T20:43:35.543Z,53.33
2022-12-18T20:44:22.348Z,53.93
2022-12-18T20:44:58.248Z,54.40
2022-12-18T20:45:33.145Z,55.00
2022-12-18T20:46:09.715Z,55.30
2022-12-18T20:46:44.647Z,55.80
2022-12-18T20:47:19.519Z,55.13
2022-12-18T20:48:14.568Z,54.43
2022-12-18T20:48:49.484Z,56.40
2022-12-18T20:49:25.195Z,58.57
2022-12-18T20:50:02.552Z,56.03
2022-12-18T20:50:37.507Z,56.90
2022-12-18T20:51:15.291Z,57.17
2022-12-18T20:51:54.879Z,56.43
2022-12-18T20:52:29.779Z,54.53
2022-12-18T20:53:05.019Z,57.73
2022-12-18T20:53:41.801Z,57.07
2022-12-18T20:54:17.568Z,57.80
2022-12-18T20:54:52.473Z,56.83
2022-12-18T20:55:27.350Z,57.77
2022-12-18T20:56:02.959Z,56.23
2022-12-18T20:56:37.817Z,56.10
2022-12-18T20:57:12.695Z,57.30
2022-12-18T20:57:47.812Z,55.90
2022-12-18T20:58:22.721Z,55.43
2022-12-18T20:58:58.287Z,57.07
2022-12-18T20:59:33.225Z,57.03
2022-12-18T21:00:08.941Z,57.10
2022-12-18T21:00:45.103Z,56.20
2022-12-18T21:01:23.000Z,57.00
2022-12-18T21:01:58.277Z,55.83
2022-12-18T21:02:33.427Z,57.20
2022-12-18T21:03:08.628Z,59.93
2022-12-18T21:03:44.201Z,58.37
2022-12-18T21:04:19.743Z,57.90
2022-12-18T21:04:55.314Z,59.33
2022-12-18T21:05:30.183Z,59.40
2022-12-18T21:06:05.076Z,60.30
2022-12-18T21:06:40.174Z,60.93
2022-12-18T21:07:15.121Z,61.23
2022-12-18T21:07:50.047Z,61.10
2022-12-18T21:08:24.928Z,59.23
2022-12-18T21:08:59.849Z,59.67
2022-12-18T21:09:37.538Z,59.53
2022-12-18T21:10:13.394Z,60.87
2022-12-18T21:10:48.281Z,60.97
2022-12-18T21:11:41.572Z,60.53
2022-12-18T21:12:44.097Z,60.50
2022-12-18T21:13:24.197Z,61.77
2022-12-18T21:13:59.205Z,60.83
2022-12-18T21:14:34.142Z,61.07
2022-12-18T21:15:10.563Z,60.33
2022-12-18T21:15:45.447Z,61.47
2022-12-18T21:16:20.361Z,60.00
2022-12-18T21:16:55.278Z,60.30
2022-12-18T21:17:30.341Z,63.13
2022-12-18T21:18:11.419Z,63.80
2022-12-18T21:18:46.304Z,64.23
2022-12-18T21:19:24.369Z,62.20
2022-12-18T21:19:59.891Z,62.33
2022-12-18T21:20:35.114Z,64.47
2022-12-18T21:21:10.187Z,64.23
2022-12-18T21:21:45.177Z,63.80
2022-12-18T21:22:20.160Z,64.17
2022-12-18T21:22:57.326Z,64.17
2022-12-18T21:23:37.892Z,64.00
2022-12-18T21:24:12.881Z,64.23
2022-12-18T21:24:47.750Z,62.77
2022-12-18T21:25:22.619Z,64.17
2022-12-18T21:26:08.247Z,65.90
2022-12-18T21:26:46.177Z,66.50
2022-12-18T21:27:21.614Z,66.67
2022-12-18T21:27:56.651Z,65.67
2022-12-18T21:28:31.672Z,64.27
2022-12-18T21:29:11.533Z,65.77
2022-12-18T21:29:47.620Z,70.27
2022-12-18T21:30:22.709Z,69.13
2022-12-18T21:30:58.200Z,69.33
2022-12-18T21:31:35.487Z,68.63
2022-12-18T21:32:10.907Z,67.37
2022-12-18T21:32:45.823Z,65.07
2022-12-18T21:33:20.691Z,67.23
2022-12-18T21:33:59.751Z,66.20
2022-12-18T21:34:37.157Z,66.73
2022-12-18T21:35:12.036Z,66.77
2022-12-18T21:35:46.914Z,67.77
2022-12-18T21:36:21.792Z,67.43
2022-12-18T21:36:57.871Z,67.20
2022-12-18T21:37:33.377Z,69.70
2022-12-18T21:38:10.150Z,69.33
2022-12-18T21:38:45.022Z,65.80
2022-12-18T21:39:20.128Z,66.03
2022-12-18T21:39:57.407Z,70.17
2022-12-18T21:40:32.420Z,70.43
2022-12-18T21:41:10.630Z,69.30
2022-12-18T21:42:04.031Z,70.27
2022-12-18T21:42:57.772Z,72.50
2022-12-18T21:43:50.828Z,70.23
2022-12-18T21:44:25.749Z,70.07
2022-12-18T21:45:00.633Z,72.87
2022-12-18T21:45:35.504Z,71.33
2022-12-18T21:46:10.494Z,73.37
2022-12-18T21:48:06.799Z,70.17
2022-12-18T21:48:43.920Z,70.47
2022-12-18T21:49:19.250Z,71.37
2022-12-18T21:49:54.162Z,72.40
2022-12-18T21:50:29.038Z,72.57
2022-12-18T21:51:03.924Z,73.40
2022-12-18T21:51:41.561Z,70.93
2022-12-18T21:52:16.418Z,73.33
2022-12-18T21:52:51.305Z,74.20
2022-12-18T21:53:26.188Z,73.93
2022-12-18T21:54:01.138Z,73.43
2022-12-18T21:54:36.095Z,70.83
2022-12-18T21:55:11.094Z,71.70
2022-12-18T21:55:45.984Z,73.93
2022-12-18T21:56:20.898Z,75.07
2022-12-18T21:56:59.200Z,73.33
2022-12-18T21:57:34.074Z,72.83
2022-12-18T21:58:08.936Z,72.97
2022-12-18T21:58:56.741Z,75.17
2022-12-18T21:59:32.382Z,77.17
2022-12-18T22:00:08.328Z,76.67
2022-12-18T22:00:48.340Z,76.33
2022-12-18T22:01:23.690Z,76.87
2022-12-18T22:02:00.371Z,74.33
2022-12-18T22:02:35.653Z,76.70
2022-12-18T22:03:17.658Z,76.97
2022-12-18T22:03:53.888Z,75.67
2022-12-18T22:04:29.032Z,75.93
2022-12-18T22:05:04.636Z,75.03
2022-12-18T22:05:39.991Z,75.67
2022-12-18T22:06:15.316Z,73.53
2022-12-18T22:06:50.722Z,73.90
2022-12-18T22:07:25.606Z,75.43
2022-12-18T22:08:00.495Z,73.90
2022-12-18T22:08:35.438Z,72.77
2022-12-18T22:10:36.672Z,71.07
2022-12-18T22:11:12.452Z,70.50
2022-12-18T22:11:47.817Z,72.13
2022-12-18T22:12:43.751Z,70.70
2022-12-18T22:13:19.996Z,71.40
2022-12-18T22:13:54.919Z,74.57
2022-12-18T22:14:29.857Z,70.77
2022-12-18T22:15:05.854Z,70.33
2022-12-18T22:15:40.809Z,71.47
2022-12-18T22:16:15.809Z,70.80
2022-12-18T22:16:50.831Z,70.57
2022-12-18T22:17:27.490Z,70.70
2022-12-18T22:18:03.009Z,72.70
2022-12-18T22:18:37.888Z,70.47
2022-12-18T22:19:12.850Z,69.73
2022-12-18T22:19:49.898Z,73.90
2022-12-18T22:20:24.760Z,73.60
2022-12-18T22:21:05.033Z,69.70
2022-12-18T22:21:41.312Z,69.50
2022-12-18T22:22:16.180Z,68.57
2022-12-18T22:22:52.334Z,70.43
2022-12-18T22:23:27.224Z,70.67
2022-12-18T22:24:13.709Z,69.90
2022-12-18T22:24:48.635Z,71.03
2022-12-18T22:25:23.511Z,73.40
2022-12-18T22:25:58.375Z,71.90
2022-12-18T22:26:39.503Z,74.80
2022-12-18T22:27:15.172Z,71.93
2022-12-18T22:28:12.820Z,72.20
2022-12-18T22:29:06.140Z,76.37
2022-12-18T22:29:59.242Z,77.40
2022-12-18T22:30:34.117Z,74.30
2022-12-18T22:31:09.851Z,73.27
2022-12-18T22:31:44.822Z,73.57
2022-12-18T22:32:30.496Z,78.60
2022-12-18T22:33:06.060Z,76.67
2022-12-18T22:33:40.935Z,76.83
2022-12-18T22:34:19.390Z,74.33
2022-12-18T22:34:59.413Z,75.57
2022-12-18T22:35:38.252Z,76.00
2022-12-18T22:36:13.748Z,75.67
2022-12-18T22:36:51.885Z,76.57
2022-12-18T22:37:26.791Z,75.73
2022-12-18T22:38:01.843Z,75.23
2022-12-18T22:38:36.824Z,78.27
2022-12-18T22:39:16.627Z,79.67
2022-12-18T22:39:51.570Z,78.57
2022-12-18T22:40:27.548Z,81.27
2022-12-18T22:41:02.515Z,79.37
2022-12-18T22:41:37.390Z,80.10
2022-12-18T22:42:12.284Z,80.37
2022-12-18T22:42:47.213Z,79.37
2022-12-18T22:43:25.421Z,80.10
2022-12-18T22:44:00.337Z,79.17
2022-12-18T22:44:35.259Z,78.83
2022-12-18T22:45:10.530Z,79.97
2022-12-18T22:45:47.897Z,83.07
2022-12-18T22:46:23.120Z,80.60
2022-12-18T22:47:05.686Z,81.43
2022-12-18T22:47:42.041Z,79.57
2022-12-18T22:48:17.010Z,80.83
2022-12-18T22:48:52.057Z,81.37
2022-12-18T22:49:27.286Z,81.70
2022-12-18T22:50:02.170Z,80.17
2022-12-18T22:50:37.081Z,81.33
2022-12-18T22:51:18.535Z,82.90
2022-12-18T22:51:54.083Z,82.87
2022-12-18T22:52:28.980Z,83.33
2022-12-18T22:53:03.844Z,85.57
2022-12-18T22:53:38.730Z,85.63
2022-12-18T22:54:14.645Z,85.67
2022-12-18T22:54:49.541Z,84.30
2022-12-18T22:56:47.741Z,87.00
2022-12-18T22:57:23.317Z,83.13
2022-12-18T22:57:58.226Z,82.93
2022-12-18T22:58:33.115Z,85.20
2022-12-18T23:00:27.576Z,82.10
2022-12-18T23:01:02.330Z,81.93
2022-12-18T23:01:37.331Z,82.10
2022-12-18T23:02:13.977Z,83.33
2022-12-18T23:02:52.124Z,83.57
2022-12-18T23:03:31.507Z,83.77
2022-12-18T23:04:06.401Z,82.27
2022-12-18T23:04:41.268Z,82.63
2022-12-18T23:05:16.189Z,83.70
2022-12-18T23:05:51.077Z,81.43
2022-12-18T23:06:28.616Z,82.87
2022-12-18T23:07:03.504Z,83.43
2022-12-18T23:07:38.392Z,84.00
2022-12-18T23:08:13.723Z,84.93
2022-12-18T23:08:52.960Z,83.17
2022-12-18T23:09:30.705Z,82.83
2022-12-18T23:10:05.782Z,81.90
2022-12-18T23:10:40.683Z,81.90
2022-12-18T23:12:34.846Z,82.60
2022-12-18T23:13:12.238Z,81.53
2022-12-18T23:13:47.277Z,82.63
2022-12-18T23:14:22.147Z,83.43
2022-12-18T23:14:57.038Z,80.60
2022-12-18T23:15:31.947Z,80.67
2022-12-18T23:16:10.811Z,82.47
2022-12-18T23:16:45.733Z,82.63
2022-12-18T23:17:22.409Z,84.07
2022-12-18T23:18:00.955Z,81.50
2022-12-18T23:18:36.469Z,80.93
2022-12-18T23:19:11.352Z,82.83
2022-12-18T23:19:49.271Z,80.57
2022-12-18T23:20:24.553Z,77.17
2022-12-18T23:20:59.481Z,79.83
2022-12-18T23:21:34.590Z,78.83
2022-12-18T23:22:11.970Z,78.87
2022-12-18T23:22:46.919Z,79.33
2022-12-18T23:23:21.821Z,81.97
2022-12-18T23:23:56.718Z,82.57
2022-12-18T23:24:32.775Z,81.77
2022-12-18T23:25:07.767Z,83.77
2022-12-18T23:25:42.649Z,85.53
2022-12-18T23:26:20.360Z,87.20
2022-12-18T23:26:55.286Z,85.57
2022-12-18T23:27:30.274Z,88.07
2022-12-18T23:28:05.258Z,88.27
2022-12-18T23:28:40.220Z,86.97
2022-12-18T23:29:15.098Z,87.07
2022-12-18T23:29:49.974Z,87.13
2022-12-18T23:30:26.958Z,89.40
2022-12-18T23:31:18.290Z,87.80
2022-12-18T23:31:53.250Z,90.73
2022-12-18T23:32:28.155Z,88.33
2022-12-18T23:33:03.040Z,90.80
2022-12-18T23:33:38.063Z,90.20
2022-12-18T23:34:14.162Z,94.83
2022-12-18T23:34:49.032Z,92.47
2022-12-18T23:35:23.925Z,90.73
2022-12-18T23:36:04.748Z,91.13
2022-12-18T23:36:45.637Z,89.27
2022-12-18T23:37:49.763Z,90.80
2022-12-18T23:38:16.509Z,90.50
2022-12-18T23:38:55.917Z,90.10
2022-12-18T23:39:30.864Z,88.10
2022-12-18T23:41:30.880Z,90.73
2022-12-18T23:42:05.888Z,90.27
2022-12-18T23:42:40.765Z,89.43
2022-12-18T23:43:15.633Z,88.97
2022-12-18T23:43:50.809Z,89.17
2022-12-18T23:44:25.711Z,92.93
2022-12-18T23:45:00.596Z,91.40
2022-12-18T23:45:39.805Z,90.70
2022-12-18T23:46:18.859Z,90.73
2022-12-18T23:46:54.105Z,89.93
2022-12-18T23:47:29.034Z,89.57
2022-12-18T23:48:03.919Z,90.27
2022-12-18T23:48:38.800Z,92.10
2022-12-18T23:49:13.674Z,86.50
2022-12-18T23:49:48.547Z,89.20
2022-12-18T23:50:29.766Z,91.63
2022-12-18T23:51:09.100Z,89.83
2022-12-18T23:51:43.976Z,90.77
2022-12-18T23:52:18.849Z,89.13
2022-12-18T23:52:53.722Z,88.70
2022-12-18T23:53:28.608Z,89.60
2022-12-18T23:54:04.208Z,89.03
2022-12-18T23:54:39.980Z,88.47
2022-12-18T23:55:14.845Z,90.77
2022-12-18T23:55:50.103Z,88.93
2022-12-18T23:56:27.241Z,86.97
2022-12-18T23:57:02.265Z,85.90
2022-12-18T23:57:37.129Z,87.83
2022-12-18T23:58:21.791Z,89.10
2022-12-18T23:58:56.671Z,85.67
2022-12-18T23:59:31.604Z,87.37
